sensor_id;sensor_type;location;lat;lon;timestamp;temperature;humidity
4010;DHT22;2019;48.200;11.548;2022-08-21T00:02:16;20.00;94.20
4010;DHT22;2019;48.200;11.548;2022-08-21T00:04:42;20.00;93.90
4010;DHT22;2019;48.200;11.548;2022-08-21T00:07:08;19.90;93.80
4010;DHT22;2019;48.200;11.548;2022-08-21T00:09:34;19.90;93.70
4010;DHT22;2019;48.200;11.548;2022-08-21T00:11:59;19.90;93.70
4010;DHT22;2019;48.200;11.548;2022-08-21T00:14:25;19.90;93.70
4010;DHT22;2019;48.200;11.548;2022-08-21T00:16:51;19.90;93.70
4010;DHT22;2019;48.200;11.548;2022-08-21T00:19:17;19.90;93.70
4010;DHT22;2019;48.200;11.548;2022-08-21T00:21:42;19.80;93.60
4010;DHT22;2019;48.200;11.548;2022-08-21T00:24:08;19.80;93.60
4010;DHT22;2019;48.200;11.548;2022-08-21T00:26:34;19.80;93.50
4010;DHT22;2019;48.200;11.548;2022-08-21T00:28:59;19.80;93.50
4010;DHT22;2019;48.200;11.548;2022-08-21T00:31:25;19.80;93.60
4010;DHT22;2019;48.200;11.548;2022-08-21T00:33:51;19.80;93.50
4010;DHT22;2019;48.200;11.548;2022-08-21T00:36:17;19.80;93.40
4010;DHT22;2019;48.200;11.548;2022-08-21T00:38:42;19.80;93.40
4010;DHT22;2019;48.200;11.548;2022-08-21T00:41:09;19.80;93.40
4010;DHT22;2019;48.200;11.548;2022-08-21T00:43:37;19.80;93.30
4010;DHT22;2019;48.200;11.548;2022-08-21T00:46:04;19.70;93.30
4010;DHT22;2019;48.200;11.548;2022-08-21T00:48:31;19.70;93.20
4010;DHT22;2019;48.200;11.548;2022-08-21T00:51:13;19.70;93.10
4010;DHT22;2019;48.200;11.548;2022-08-21T00:53:42;19.70;93.10
4010;DHT22;2019;48.200;11.548;2022-08-21T00:56:10;19.70;93.00
4010;DHT22;2019;48.200;11.548;2022-08-21T00:58:39;19.70;93.00
4010;DHT22;2019;48.200;11.548;2022-08-21T01:01:06;19.70;93.00
4010;DHT22;2019;48.200;11.548;2022-08-21T01:03:33;19.60;93.00
4010;DHT22;2019;48.200;11.548;2022-08-21T01:05:59;19.60;93.00
4010;DHT22;2019;48.200;11.548;2022-08-21T01:08:25;19.60;92.90
4010;DHT22;2019;48.200;11.548;2022-08-21T01:10:52;19.50;92.90
4010;DHT22;2019;48.200;11.548;2022-08-21T01:13:19;19.50;92.90
4010;DHT22;2019;48.200;11.548;2022-08-21T01:15:48;19.50;92.90
4010;DHT22;2019;48.200;11.548;2022-08-21T01:18:15;19.50;92.90
4010;DHT22;2019;48.200;11.548;2022-08-21T01:20:50;19.50;92.90
4010;DHT22;2019;48.200;11.548;2022-08-21T01:23:15;19.50;92.80
4010;DHT22;2019;48.200;11.548;2022-08-21T01:25:41;19.40;92.70
4010;DHT22;2019;48.200;11.548;2022-08-21T01:28:12;19.50;92.80
4010;DHT22;2019;48.200;11.548;2022-08-21T01:30:39;19.40;92.80
4010;DHT22;2019;48.200;11.548;2022-08-21T01:33:05;19.40;92.80
4010;DHT22;2019;48.200;11.548;2022-08-21T01:35:31;19.40;92.80
4010;DHT22;2019;48.200;11.548;2022-08-21T01:37:56;19.30;93.00
4010;DHT22;2019;48.200;11.548;2022-08-21T01:40:22;19.30;92.70
4010;DHT22;2019;48.200;11.548;2022-08-21T01:42:48;19.30;92.70
4010;DHT22;2019;48.200;11.548;2022-08-21T01:45:14;19.40;92.70
4010;DHT22;2019;48.200;11.548;2022-08-21T01:47:42;19.30;92.60
4010;DHT22;2019;48.200;11.548;2022-08-21T01:50:12;19.20;92.60
4010;DHT22;2019;48.200;11.548;2022-08-21T01:52:39;19.20;92.50
4010;DHT22;2019;48.200;11.548;2022-08-21T01:55:06;19.20;92.50
4010;DHT22;2019;48.200;11.548;2022-08-21T01:57:32;19.20;92.50
4010;DHT22;2019;48.200;11.548;2022-08-21T01:59:58;19.20;92.50
4010;DHT22;2019;48.200;11.548;2022-08-21T02:02:24;19.20;92.50
4010;DHT22;2019;48.200;11.548;2022-08-21T02:04:49;19.10;92.40
4010;DHT22;2019;48.200;11.548;2022-08-21T02:07:15;19.10;92.40
4010;DHT22;2019;48.200;11.548;2022-08-21T02:09:41;19.10;92.40
4010;DHT22;2019;48.200;11.548;2022-08-21T02:12:08;19.00;92.40
4010;DHT22;2019;48.200;11.548;2022-08-21T02:14:34;19.00;92.40
4010;DHT22;2019;48.200;11.548;2022-08-21T02:17:00;19.00;92.40
4010;DHT22;2019;48.200;11.548;2022-08-21T02:19:26;19.00;92.40
4010;DHT22;2019;48.200;11.548;2022-08-21T02:21:51;19.00;92.40
4010;DHT22;2019;48.200;11.548;2022-08-21T02:24:17;19.00;92.40
4010;DHT22;2019;48.200;11.548;2022-08-21T02:26:42;19.00;92.30
4010;DHT22;2019;48.200;11.548;2022-08-21T02:29:08;19.00;92.30
4010;DHT22;2019;48.200;11.548;2022-08-21T02:31:34;19.00;92.30
4010;DHT22;2019;48.200;11.548;2022-08-21T02:33:59;18.90;92.30
4010;DHT22;2019;48.200;11.548;2022-08-21T02:36:25;18.90;92.30
4010;DHT22;2019;48.200;11.548;2022-08-21T02:38:51;18.90;92.20
4010;DHT22;2019;48.200;11.548;2022-08-21T02:41:19;18.90;92.20
4010;DHT22;2019;48.200;11.548;2022-08-21T02:43:46;18.90;92.40
4010;DHT22;2019;48.200;11.548;2022-08-21T02:46:14;18.90;92.20
4010;DHT22;2019;48.200;11.548;2022-08-21T02:48:40;18.90;92.20
4010;DHT22;2019;48.200;11.548;2022-08-21T02:51:11;18.90;92.20
4010;DHT22;2019;48.200;11.548;2022-08-21T02:53:37;18.80;92.20
4010;DHT22;2019;48.200;11.548;2022-08-21T02:56:06;18.80;92.10
4010;DHT22;2019;48.200;11.548;2022-08-21T02:58:36;18.80;92.10
4010;DHT22;2019;48.200;11.548;2022-08-21T03:01:02;18.80;92.10
4010;DHT22;2019;48.200;11.548;2022-08-21T03:03:29;18.80;92.20
4010;DHT22;2019;48.200;11.548;2022-08-21T03:05:54;18.80;92.20
4010;DHT22;2019;48.200;11.548;2022-08-21T03:08:20;18.80;92.20
4010;DHT22;2019;48.200;11.548;2022-08-21T03:10:51;18.80;92.20
4010;DHT22;2019;48.200;11.548;2022-08-21T03:13:18;18.80;92.20
4010;DHT22;2019;48.200;11.548;2022-08-21T03:15:45;18.70;92.20
4010;DHT22;2019;48.200;11.548;2022-08-21T03:18:12;18.70;92.20
4010;DHT22;2019;48.200;11.548;2022-08-21T03:20:39;18.70;92.20
4010;DHT22;2019;48.200;11.548;2022-08-21T03:23:05;18.70;92.50
4010;DHT22;2019;48.200;11.548;2022-08-21T03:25:32;18.70;92.20
4010;DHT22;2019;48.200;11.548;2022-08-21T03:27:59;18.70;92.20
4010;DHT22;2019;48.200;11.548;2022-08-21T03:30:24;18.60;92.10
4010;DHT22;2019;48.200;11.548;2022-08-21T03:32:50;18.60;92.20
4010;DHT22;2019;48.200;11.548;2022-08-21T03:35:17;18.60;92.20
4010;DHT22;2019;48.200;11.548;2022-08-21T03:37:43;18.60;92.20
4010;DHT22;2019;48.200;11.548;2022-08-21T03:40:11;18.60;92.20
4010;DHT22;2019;48.200;11.548;2022-08-21T03:42:37;18.70;92.30
4010;DHT22;2019;48.200;11.548;2022-08-21T03:45:04;18.60;92.20
4010;DHT22;2019;48.200;11.548;2022-08-21T03:47:29;18.60;92.20
4010;DHT22;2019;48.200;11.548;2022-08-21T03:49:55;18.60;92.20
4010;DHT22;2019;48.200;11.548;2022-08-21T03:52:21;18.60;92.20
4010;DHT22;2019;48.200;11.548;2022-08-21T03:54:47;18.50;92.20
4010;DHT22;2019;48.200;11.548;2022-08-21T03:57:12;18.50;92.20
4010;DHT22;2019;48.200;11.548;2022-08-21T03:59:38;18.50;92.20
4010;DHT22;2019;48.200;11.548;2022-08-21T04:02:09;18.50;92.20
4010;DHT22;2019;48.200;11.548;2022-08-21T04:04:35;18.50;92.20
4010;DHT22;2019;48.200;11.548;2022-08-21T04:07:02;18.50;92.20
4010;DHT22;2019;48.200;11.548;2022-08-21T04:09:29;18.50;92.20
4010;DHT22;2019;48.200;11.548;2022-08-21T04:11:55;18.50;92.20
4010;DHT22;2019;48.200;11.548;2022-08-21T04:14:21;18.50;92.20
4010;DHT22;2019;48.200;11.548;2022-08-21T04:16:48;18.40;92.10
4010;DHT22;2019;48.200;11.548;2022-08-21T04:19:14;18.40;92.10
4010;DHT22;2019;48.200;11.548;2022-08-21T04:21:40;18.40;92.20
4010;DHT22;2019;48.200;11.548;2022-08-21T04:24:07;18.40;92.20
4010;DHT22;2019;48.200;11.548;2022-08-21T04:26:34;18.40;92.20
4010;DHT22;2019;48.200;11.548;2022-08-21T04:29:00;18.40;92.20
4010;DHT22;2019;48.200;11.548;2022-08-21T04:31:26;18.40;92.20
4010;DHT22;2019;48.200;11.548;2022-08-21T04:33:52;18.40;92.20
4010;DHT22;2019;48.200;11.548;2022-08-21T04:36:18;18.40;92.30
4010;DHT22;2019;48.200;11.548;2022-08-21T04:38:43;18.40;92.20
4010;DHT22;2019;48.200;11.548;2022-08-21T04:41:09;18.40;92.20
4010;DHT22;2019;48.200;11.548;2022-08-21T04:43:35;18.40;92.20
4010;DHT22;2019;48.200;11.548;2022-08-21T04:46:00;18.40;92.20
4010;DHT22;2019;48.200;11.548;2022-08-21T04:48:27;18.40;92.10
4010;DHT22;2019;48.200;11.548;2022-08-21T04:53:26;18.40;92.10
4010;DHT22;2019;48.200;11.548;2022-08-21T04:55:54;18.40;92.10
4010;DHT22;2019;48.200;11.548;2022-08-21T04:58:25;18.40;92.10
4010;DHT22;2019;48.200;11.548;2022-08-21T05:00:54;18.40;92.00
4010;DHT22;2019;48.200;11.548;2022-08-21T05:03:20;18.40;92.10
4010;DHT22;2019;48.200;11.548;2022-08-21T05:05:47;18.40;92.00
4010;DHT22;2019;48.200;11.548;2022-08-21T05:08:16;18.40;92.00
4010;DHT22;2019;48.200;11.548;2022-08-21T05:10:44;18.40;92.00
4010;DHT22;2019;48.200;11.548;2022-08-21T05:13:11;18.40;92.10
4010;DHT22;2019;48.200;11.548;2022-08-21T05:15:38;18.50;92.10
4010;DHT22;2019;48.200;11.548;2022-08-21T05:18:04;18.50;92.20
4010;DHT22;2019;48.200;11.548;2022-08-21T05:20:30;18.50;92.30
4010;DHT22;2019;48.200;11.548;2022-08-21T05:22:56;18.50;92.30
4010;DHT22;2019;48.200;11.548;2022-08-21T05:25:22;18.50;92.40
4010;DHT22;2019;48.200;11.548;2022-08-21T05:27:47;18.50;92.40
4010;DHT22;2019;48.200;11.548;2022-08-21T05:30:13;18.50;92.40
4010;DHT22;2019;48.200;11.548;2022-08-21T05:32:39;18.60;92.50
4010;DHT22;2019;48.200;11.548;2022-08-21T05:35:05;18.60;92.60
4010;DHT22;2019;48.200;11.548;2022-08-21T05:37:31;18.60;92.60
4010;DHT22;2019;48.200;11.548;2022-08-21T05:39:58;18.60;92.60
4010;DHT22;2019;48.200;11.548;2022-08-21T05:42:24;18.60;92.70
4010;DHT22;2019;48.200;11.548;2022-08-21T05:44:49;18.70;93.10
4010;DHT22;2019;48.200;11.548;2022-08-21T05:47:15;18.70;92.80
4010;DHT22;2019;48.200;11.548;2022-08-21T05:49:40;18.70;92.80
4010;DHT22;2019;48.200;11.548;2022-08-21T05:52:06;18.80;92.90
4010;DHT22;2019;48.200;11.548;2022-08-21T05:54:32;18.80;92.90
4010;DHT22;2019;48.200;11.548;2022-08-21T05:56:57;18.80;92.90
4010;DHT22;2019;48.200;11.548;2022-08-21T05:59:23;18.80;92.90
4010;DHT22;2019;48.200;11.548;2022-08-21T06:01:48;18.90;93.00
4010;DHT22;2019;48.200;11.548;2022-08-21T06:04:14;18.90;93.00
4010;DHT22;2019;48.200;11.548;2022-08-21T06:06:40;18.90;93.00
4010;DHT22;2019;48.200;11.548;2022-08-21T06:09:06;19.00;93.10
4010;DHT22;2019;48.200;11.548;2022-08-21T06:11:33;19.00;93.10
4010;DHT22;2019;48.200;11.548;2022-08-21T06:13:58;19.00;93.20
4010;DHT22;2019;48.200;11.548;2022-08-21T06:16:25;19.10;93.40
4010;DHT22;2019;48.200;11.548;2022-08-21T06:18:51;19.10;93.70
4010;DHT22;2019;48.200;11.548;2022-08-21T06:21:17;19.20;93.40
4010;DHT22;2019;48.200;11.548;2022-08-21T06:23:43;19.20;93.20
4010;DHT22;2019;48.200;11.548;2022-08-21T06:26:10;19.30;93.20
4010;DHT22;2019;48.200;11.548;2022-08-21T06:28:36;19.30;93.30
4010;DHT22;2019;48.200;11.548;2022-08-21T06:31:14;19.40;93.30
4010;DHT22;2019;48.200;11.548;2022-08-21T06:33:40;19.40;93.20
4010;DHT22;2019;48.200;11.548;2022-08-21T06:36:05;19.50;93.30
4010;DHT22;2019;48.200;11.548;2022-08-21T06:38:31;19.50;93.20
4010;DHT22;2019;48.200;11.548;2022-08-21T06:40:57;19.50;93.00
4010;DHT22;2019;48.200;11.548;2022-08-21T06:43:23;19.60;92.90
4010;DHT22;2019;48.200;11.548;2022-08-21T06:45:48;19.60;92.80
4010;DHT22;2019;48.200;11.548;2022-08-21T06:48:14;19.70;92.60
4010;DHT22;2019;48.200;11.548;2022-08-21T06:50:40;19.80;92.30
4010;DHT22;2019;48.200;11.548;2022-08-21T06:53:08;19.80;92.00
4010;DHT22;2019;48.200;11.548;2022-08-21T06:55:35;19.80;91.60
4010;DHT22;2019;48.200;11.548;2022-08-21T06:58:00;19.90;91.20
4010;DHT22;2019;48.200;11.548;2022-08-21T07:00:26;19.90;91.10
4010;DHT22;2019;48.200;11.548;2022-08-21T07:02:52;20.00;90.90
4010;DHT22;2019;48.200;11.548;2022-08-21T07:05:18;20.00;90.50
4010;DHT22;2019;48.200;11.548;2022-08-21T07:07:43;20.10;90.40
4010;DHT22;2019;48.200;11.548;2022-08-21T07:10:09;20.10;90.40
4010;DHT22;2019;48.200;11.548;2022-08-21T07:12:35;20.20;90.50
4010;DHT22;2019;48.200;11.548;2022-08-21T07:15:01;20.30;90.40
4010;DHT22;2019;48.200;11.548;2022-08-21T07:17:26;20.30;90.00
4010;DHT22;2019;48.200;11.548;2022-08-21T07:19:52;20.40;89.80
4010;DHT22;2019;48.200;11.548;2022-08-21T07:22:20;20.50;89.50
4010;DHT22;2019;48.200;11.548;2022-08-21T07:24:46;20.50;89.50
4010;DHT22;2019;48.200;11.548;2022-08-21T07:27:12;20.60;88.90
4010;DHT22;2019;48.200;11.548;2022-08-21T07:29:38;20.70;87.90
4010;DHT22;2019;48.200;11.548;2022-08-21T07:32:04;20.80;87.30
4010;DHT22;2019;48.200;11.548;2022-08-21T07:34:30;20.80;86.90
4010;DHT22;2019;48.200;11.548;2022-08-21T07:36:57;20.90;87.00
4010;DHT22;2019;48.200;11.548;2022-08-21T07:39:23;20.90;86.30
4010;DHT22;2019;48.200;11.548;2022-08-21T07:41:48;21.00;86.50
4010;DHT22;2019;48.200;11.548;2022-08-21T07:44:16;21.10;86.40
4010;DHT22;2019;48.200;11.548;2022-08-21T07:46:42;21.10;85.80
4010;DHT22;2019;48.200;11.548;2022-08-21T07:49:08;21.20;86.00
4010;DHT22;2019;48.200;11.548;2022-08-21T07:51:33;21.30;86.20
4010;DHT22;2019;48.200;11.548;2022-08-21T07:54:00;21.30;86.10
4010;DHT22;2019;48.200;11.548;2022-08-21T07:56:27;21.40;85.80
4010;DHT22;2019;48.200;11.548;2022-08-21T07:58:53;21.50;86.10
4010;DHT22;2019;48.200;11.548;2022-08-21T08:01:19;21.60;85.80
4010;DHT22;2019;48.200;11.548;2022-08-21T08:03:46;21.60;85.00
4010;DHT22;2019;48.200;11.548;2022-08-21T08:06:12;21.70;84.30
4010;DHT22;2019;48.200;11.548;2022-08-21T08:08:41;21.70;84.30
4010;DHT22;2019;48.200;11.548;2022-08-21T08:11:08;21.90;84.10
4010;DHT22;2019;48.200;11.548;2022-08-21T08:13:47;21.90;84.50
4010;DHT22;2019;48.200;11.548;2022-08-21T08:16:14;22.00;84.10
4010;DHT22;2019;48.200;11.548;2022-08-21T08:18:40;22.10;84.00
4010;DHT22;2019;48.200;11.548;2022-08-21T08:21:08;22.20;84.40
4010;DHT22;2019;48.200;11.548;2022-08-21T08:23:34;22.30;83.10
4010;DHT22;2019;48.200;11.548;2022-08-21T08:26:01;22.30;82.80
4010;DHT22;2019;48.200;11.548;2022-08-21T08:28:31;22.40;82.00
4010;DHT22;2019;48.200;11.548;2022-08-21T08:30:57;22.50;81.80
4010;DHT22;2019;48.200;11.548;2022-08-21T08:33:23;22.50;82.40
4010;DHT22;2019;48.200;11.548;2022-08-21T08:35:51;22.60;82.50
4010;DHT22;2019;48.200;11.548;2022-08-21T08:38:18;22.70;82.80
4010;DHT22;2019;48.200;11.548;2022-08-21T08:41:06;22.80;82.50
4010;DHT22;2019;48.200;11.548;2022-08-21T08:43:34;22.90;82.20
4010;DHT22;2019;48.200;11.548;2022-08-21T08:46:03;23.00;82.50
4010;DHT22;2019;48.200;11.548;2022-08-21T08:51:23;23.20;82.30
4010;DHT22;2019;48.200;11.548;2022-08-21T08:54:01;23.30;81.00
4010;DHT22;2019;48.200;11.548;2022-08-21T08:56:32;23.30;80.80
4010;DHT22;2019;48.200;11.548;2022-08-21T08:59:05;23.40;80.50
4010;DHT22;2019;48.200;11.548;2022-08-21T09:01:33;23.50;81.50
4010;DHT22;2019;48.200;11.548;2022-08-21T09:03:59;23.60;80.90
4010;DHT22;2019;48.200;11.548;2022-08-21T09:23:52;24.20;79.20
4010;DHT22;2019;48.200;11.548;2022-08-21T09:26:25;24.40;80.10
4010;DHT22;2019;48.200;11.548;2022-08-21T09:28:54;24.50;80.30
4010;DHT22;2019;48.200;11.548;2022-08-21T09:31:25;24.60;78.80
4010;DHT22;2019;48.200;11.548;2022-08-21T09:33:58;24.70;78.90
4010;DHT22;2019;48.200;11.548;2022-08-21T09:36:29;24.80;78.50
4010;DHT22;2019;48.200;11.548;2022-08-21T09:38:56;25.00;79.90
4010;DHT22;2019;48.200;11.548;2022-08-21T09:41:30;25.20;78.50
4010;DHT22;2019;48.200;11.548;2022-08-21T09:43:57;25.40;77.60
4010;DHT22;2019;48.200;11.548;2022-08-21T09:46:26;25.50;76.10
4010;DHT22;2019;48.200;11.548;2022-08-21T09:48:54;25.50;75.40
4010;DHT22;2019;48.200;11.548;2022-08-21T09:51:23;25.50;74.40
4010;DHT22;2019;48.200;11.548;2022-08-21T09:53:55;25.60;74.40
4010;DHT22;2019;48.200;11.548;2022-08-21T09:56:31;25.70;75.50
4010;DHT22;2019;48.200;11.548;2022-08-21T09:59:19;25.90;75.30
4010;DHT22;2019;48.200;11.548;2022-08-21T10:01:48;26.10;74.70
4010;DHT22;2019;48.200;11.548;2022-08-21T10:04:14;26.30;73.90
4010;DHT22;2019;48.200;11.548;2022-08-21T10:06:40;26.40;73.20
4010;DHT22;2019;48.200;11.548;2022-08-21T10:09:20;26.20;70.90
4010;DHT22;2019;48.200;11.548;2022-08-21T10:12:05;26.10;70.80
4010;DHT22;2019;48.200;11.548;2022-08-21T10:14:45;26.10;71.10
4010;DHT22;2019;48.200;11.548;2022-08-21T10:17:17;26.10;70.80
4010;DHT22;2019;48.200;11.548;2022-08-21T10:20:06;26.10;71.10
4010;DHT22;2019;48.200;11.548;2022-08-21T10:33:32;25.60;70.90
4010;DHT22;2019;48.200;11.548;2022-08-21T10:38:55;25.40;71.70
4010;DHT22;2019;48.200;11.548;2022-08-21T10:44:23;25.60;72.90
4010;DHT22;2019;48.200;11.548;2022-08-21T10:46:54;25.70;72.00
4010;DHT22;2019;48.200;11.548;2022-08-21T10:49:23;25.70;71.60
4010;DHT22;2019;48.200;11.548;2022-08-21T10:52:02;25.80;73.00
4010;DHT22;2019;48.200;11.548;2022-08-21T10:57:30;26.20;72.60
4010;DHT22;2019;48.200;11.548;2022-08-21T11:00:07;26.40;71.50
4010;DHT22;2019;48.200;11.548;2022-08-21T11:02:53;26.50;70.20
4010;DHT22;2019;48.200;11.548;2022-08-21T11:05:27;26.70;69.70
4010;DHT22;2019;48.200;11.548;2022-08-21T11:10:29;27.00;69.40
4010;DHT22;2019;48.200;11.548;2022-08-21T11:13:04;27.10;68.00
4010;DHT22;2019;48.200;11.548;2022-08-21T11:15:42;27.30;68.00
4010;DHT22;2019;48.200;11.548;2022-08-21T11:18:17;27.40;68.20
4010;DHT22;2019;48.200;11.548;2022-08-21T11:23:34;27.70;65.00
4010;DHT22;2019;48.200;11.548;2022-08-21T11:26:07;27.80;65.30
4010;DHT22;2019;48.200;11.548;2022-08-21T11:28:48;27.90;63.60
4010;DHT22;2019;48.200;11.548;2022-08-21T11:31:47;28.00;62.80
4010;DHT22;2019;48.200;11.548;2022-08-21T11:34:27;28.10;60.10
4010;DHT22;2019;48.200;11.548;2022-08-21T11:37:16;28.20;60.50
4010;DHT22;2019;48.200;11.548;2022-08-21T11:40:05;28.30;58.60
4010;DHT22;2019;48.200;11.548;2022-08-21T11:45:45;28.10;56.80
4010;DHT22;2019;48.200;11.548;2022-08-21T11:51:13;28.20;57.40
4010;DHT22;2019;48.200;11.548;2022-08-21T11:54:02;28.20;55.40
4010;DHT22;2019;48.200;11.548;2022-08-21T11:56:34;28.40;54.30
4010;DHT22;2019;48.200;11.548;2022-08-21T11:59:08;28.40;54.10
4010;DHT22;2019;48.200;11.548;2022-08-21T12:01:43;28.50;54.40
4010;DHT22;2019;48.200;11.548;2022-08-21T12:04:29;28.60;54.80
4010;DHT22;2019;48.200;11.548;2022-08-21T12:06:56;28.80;55.70
4010;DHT22;2019;48.200;11.548;2022-08-21T12:09:35;28.90;56.00
4010;DHT22;2019;48.200;11.548;2022-08-21T12:12:23;29.10;55.10
4010;DHT22;2019;48.200;11.548;2022-08-21T12:14:50;29.20;54.10
4010;DHT22;2019;48.200;11.548;2022-08-21T12:17:26;29.10;54.60
4010;DHT22;2019;48.200;11.548;2022-08-21T12:20:02;29.10;53.60
4010;DHT22;2019;48.200;11.548;2022-08-21T12:22:40;29.20;54.30
4010;DHT22;2019;48.200;11.548;2022-08-21T12:25:10;29.30;55.30
4010;DHT22;2019;48.200;11.548;2022-08-21T12:27:53;29.40;54.60
4010;DHT22;2019;48.200;11.548;2022-08-21T12:32:59;29.60;52.10
4010;DHT22;2019;48.200;11.548;2022-08-21T12:35:47;29.60;50.70
4010;DHT22;2019;48.200;11.548;2022-08-21T12:40:54;29.70;50.40
4010;DHT22;2019;48.200;11.548;2022-08-21T12:43:42;29.70;49.70
4010;DHT22;2019;48.200;11.548;2022-08-21T12:46:19;29.70;49.90
4010;DHT22;2019;48.200;11.548;2022-08-21T12:49:49;29.70;50.30
4010;DHT22;2019;48.200;11.548;2022-08-21T12:51:56;29.70;49.80
4010;DHT22;2019;48.200;11.548;2022-08-21T12:54:38;29.80;50.10
4010;DHT22;2019;48.200;11.548;2022-08-21T12:57:07;29.90;50.90
4010;DHT22;2019;48.200;11.548;2022-08-21T12:59:38;30.00;49.40
4010;DHT22;2019;48.200;11.548;2022-08-21T13:02:19;30.00;48.80
4010;DHT22;2019;48.200;11.548;2022-08-21T13:04:47;30.10;48.90
4010;DHT22;2019;48.200;11.548;2022-08-21T13:07:19;30.20;48.60
4010;DHT22;2019;48.200;11.548;2022-08-21T13:09:50;30.30;49.10
4010;DHT22;2019;48.200;11.548;2022-08-21T13:12:18;30.30;47.90
4010;DHT22;2019;48.200;11.548;2022-08-21T13:14:45;30.30;47.60
4010;DHT22;2019;48.200;11.548;2022-08-21T13:17:18;30.20;46.80
4010;DHT22;2019;48.200;11.548;2022-08-21T13:19:56;30.00;46.40
4010;DHT22;2019;48.200;11.548;2022-08-21T13:22:24;29.90;46.80
4010;DHT22;2019;48.200;11.548;2022-08-21T13:24:49;29.90;47.00
4010;DHT22;2019;48.200;11.548;2022-08-21T13:27:27;29.80;47.60
4010;DHT22;2019;48.200;11.548;2022-08-21T13:30:17;29.80;47.40
4010;DHT22;2019;48.200;11.548;2022-08-21T13:32:48;29.80;47.30
4010;DHT22;2019;48.200;11.548;2022-08-21T13:35:25;29.70;46.90
4010;DHT22;2019;48.200;11.548;2022-08-21T13:37:52;29.70;47.50
4010;DHT22;2019;48.200;11.548;2022-08-21T13:40:24;29.70;47.70
4010;DHT22;2019;48.200;11.548;2022-08-21T13:42:50;29.70;47.70
4010;DHT22;2019;48.200;11.548;2022-08-21T13:45:29;29.80;47.80
4010;DHT22;2019;48.200;11.548;2022-08-21T13:47:56;29.90;47.40
4010;DHT22;2019;48.200;11.548;2022-08-21T13:50:25;29.90;47.10
4010;DHT22;2019;48.200;11.548;2022-08-21T13:53:04;29.90;46.80
4010;DHT22;2019;48.200;11.548;2022-08-21T13:55:37;29.90;46.30
4010;DHT22;2019;48.200;11.548;2022-08-21T13:58:04;29.90;45.80
4010;DHT22;2019;48.200;11.548;2022-08-21T14:00:32;29.90;45.80
4010;DHT22;2019;48.200;11.548;2022-08-21T14:03:09;29.90;44.90
4010;DHT22;2019;48.200;11.548;2022-08-21T14:05:43;29.90;45.50
4010;DHT22;2019;48.200;11.548;2022-08-21T14:08:15;29.90;45.20
4010;DHT22;2019;48.200;11.548;2022-08-21T14:10:50;29.90;44.50
4010;DHT22;2019;48.200;11.548;2022-08-21T14:13:26;29.90;44.70
4010;DHT22;2019;48.200;11.548;2022-08-21T14:16:00;29.90;45.10
4010;DHT22;2019;48.200;11.548;2022-08-21T14:18:27;29.90;45.00
4010;DHT22;2019;48.200;11.548;2022-08-21T14:21:08;29.80;44.60
4010;DHT22;2019;48.200;11.548;2022-08-21T14:23:34;29.70;44.10
4010;DHT22;2019;48.200;11.548;2022-08-21T14:26:03;29.60;44.60
4010;DHT22;2019;48.200;11.548;2022-08-21T14:28:33;29.40;44.80
4010;DHT22;2019;48.200;11.548;2022-08-21T14:31:12;29.30;44.90
4010;DHT22;2019;48.200;11.548;2022-08-21T14:33:39;29.20;45.30
4010;DHT22;2019;48.200;11.548;2022-08-21T14:36:05;29.10;45.50
4010;DHT22;2019;48.200;11.548;2022-08-21T14:38:30;29.10;45.90
4010;DHT22;2019;48.200;11.548;2022-08-21T14:41:03;29.20;46.00
4010;DHT22;2019;48.200;11.548;2022-08-21T14:43:29;29.20;46.90
4010;DHT22;2019;48.200;11.548;2022-08-21T14:45:56;29.20;46.60
4010;DHT22;2019;48.200;11.548;2022-08-21T14:48:22;29.30;47.20
4010;DHT22;2019;48.200;11.548;2022-08-21T14:50:47;29.30;46.70
4010;DHT22;2019;48.200;11.548;2022-08-21T14:53:13;29.30;46.30
4010;DHT22;2019;48.200;11.548;2022-08-21T14:55:39;29.30;46.20
4010;DHT22;2019;48.200;11.548;2022-08-21T14:58:24;29.30;45.50
4010;DHT22;2019;48.200;11.548;2022-08-21T15:00:51;29.20;45.00
4010;DHT22;2019;48.200;11.548;2022-08-21T15:03:18;29.10;44.70
4010;DHT22;2019;48.200;11.548;2022-08-21T15:05:44;29.00;44.70
4010;DHT22;2019;48.200;11.548;2022-08-21T15:08:10;28.90;45.10
4010;DHT22;2019;48.200;11.548;2022-08-21T15:10:36;28.80;45.30
4010;DHT22;2019;48.200;11.548;2022-08-21T15:13:02;28.80;45.50
4010;DHT22;2019;48.200;11.548;2022-08-21T15:15:50;28.70;45.20
4010;DHT22;2019;48.200;11.548;2022-08-21T15:18:15;28.70;45.50
4010;DHT22;2019;48.200;11.548;2022-08-21T15:20:41;28.60;45.50
4010;DHT22;2019;48.200;11.548;2022-08-21T15:23:07;28.70;45.20
4010;DHT22;2019;48.200;11.548;2022-08-21T15:25:34;28.70;45.20
4010;DHT22;2019;48.200;11.548;2022-08-21T15:28:01;28.70;45.10
4010;DHT22;2019;48.200;11.548;2022-08-21T15:30:29;28.70;44.50
4010;DHT22;2019;48.200;11.548;2022-08-21T15:32:55;28.70;44.10
4010;DHT22;2019;48.200;11.548;2022-08-21T15:35:21;28.70;44.30
4010;DHT22;2019;48.200;11.548;2022-08-21T15:37:47;28.80;44.70
4010;DHT22;2019;48.200;11.548;2022-08-21T15:40:15;28.80;44.30
4010;DHT22;2019;48.200;11.548;2022-08-21T15:42:42;28.80;43.80
4010;DHT22;2019;48.200;11.548;2022-08-21T15:45:09;28.70;43.50
4010;DHT22;2019;48.200;11.548;2022-08-21T15:47:37;28.70;44.30
4010;DHT22;2019;48.200;11.548;2022-08-21T15:50:06;28.70;43.20
4010;DHT22;2019;48.200;11.548;2022-08-21T15:52:32;28.70;43.60
4010;DHT22;2019;48.200;11.548;2022-08-21T15:54:58;28.60;43.40
4010;DHT22;2019;48.200;11.548;2022-08-21T15:57:24;28.60;43.00
4010;DHT22;2019;48.200;11.548;2022-08-21T15:59:56;28.60;42.80
4010;DHT22;2019;48.200;11.548;2022-08-21T16:02:25;28.50;42.60
4010;DHT22;2019;48.200;11.548;2022-08-21T16:04:51;28.50;42.70
4010;DHT22;2019;48.200;11.548;2022-08-21T16:07:17;28.50;43.30
4010;DHT22;2019;48.200;11.548;2022-08-21T16:09:43;28.50;42.90
4010;DHT22;2019;48.200;11.548;2022-08-21T16:12:19;28.40;43.20
4010;DHT22;2019;48.200;11.548;2022-08-21T16:14:46;28.40;42.40
4010;DHT22;2019;48.200;11.548;2022-08-21T16:17:12;28.30;42.50
4010;DHT22;2019;48.200;11.548;2022-08-21T16:19:38;28.20;42.30
4010;DHT22;2019;48.200;11.548;2022-08-21T16:22:04;28.20;42.40
4010;DHT22;2019;48.200;11.548;2022-08-21T16:24:30;28.20;42.80
4010;DHT22;2019;48.200;11.548;2022-08-21T16:26:55;28.10;42.70
4010;DHT22;2019;48.200;11.548;2022-08-21T16:29:22;28.10;43.00
4010;DHT22;2019;48.200;11.548;2022-08-21T16:31:48;28.10;43.60
4010;DHT22;2019;48.200;11.548;2022-08-21T16:34:17;28.00;44.10
4010;DHT22;2019;48.200;11.548;2022-08-21T16:36:43;28.00;44.60
4010;DHT22;2019;48.200;11.548;2022-08-21T16:39:10;28.00;44.70
4010;DHT22;2019;48.200;11.548;2022-08-21T16:41:35;27.90;44.70
4010;DHT22;2019;48.200;11.548;2022-08-21T16:44:02;27.80;44.60
4010;DHT22;2019;48.200;11.548;2022-08-21T16:46:32;27.80;44.80
4010;DHT22;2019;48.200;11.548;2022-08-21T16:48:58;27.70;44.50
4010;DHT22;2019;48.200;11.548;2022-08-21T16:51:23;27.70;44.70
4010;DHT22;2019;48.200;11.548;2022-08-21T16:53:49;27.60;44.40
4010;DHT22;2019;48.200;11.548;2022-08-21T16:56:16;27.60;44.40